Etusivu
METAR-TAF:

METAR-TAF

Lentoasemat :

Lae, Papua-Uusi-Guinea

Leveyspiiri: 6-34-11S, Pituuspiiri: 146-43-34E, korkeus merenpinnasta: 73 m

Tämänhetkinen sää

Tämä raportti tehtiin 25 minuuttia sitten, kello 02.00 UTC
Tuuli 8 kn idästä
Lämpötila 30°C
Kosteus 70%
Ilmanpaine 1010 hPa
Näkyvyys 10 km tai enemmän
Hajanaisia pilviä 2000 ft:n korkeudessa
Hajonneita pilviä 6000 ft:n korkeudessa

METAR: AYNZ 250200Z 10008KT 9999 SCT020 BKN060 30/24 Q1010

Aika: 12:25 (02:25 UTC)


TAF: puuttuu

Säähavainnot ja -ennusteet yli 4000 lentoasemalta (METAR- ja TAF-raportit).

Käytössä olevat sääasemat on merkitty karttaan keltaisilla ja punaisilla pisteillä.

Aseta hiiri pisteen päälle nähdäksesi sääaseman nimen.

Klikkaa sitten nähdäksesi säähavainnot ja -ennusteet.

Kartan vaihtaminen: klikkaa mustalla rastilla varustettuja vihreitä pisteitä, niin voit zoomata sisään; viivalla varustettua vihreää pistettä, niin voit zoomata ulos tai vihreitä nuolia, niin pääset viereisille kartoille.


METAR-TAF: